sensor_id;sensor_type;location;lat;lon;timestamp;pressure;altitude;pressure_sealevel;temperature;humidity
73674;BME280;61975;48.660;10.164;2022-08-19T00:01:33;95123.53;;;19.25;81.40
73674;BME280;61975;48.660;10.164;2022-08-19T00:04:02;95126.00;;;19.23;81.87
73674;BME280;61975;48.660;10.164;2022-08-19T00:06:28;95130.16;;;19.19;82.04
73674;BME280;61975;48.660;10.164;2022-08-19T00:08:55;95131.41;;;19.18;82.20
73674;BME280;61975;48.660;10.164;2022-08-19T00:11:21;95140.75;;;19.15;82.17
73674;BME280;61975;48.660;10.164;2022-08-19T00:13:47;95135.22;;;19.11;82.46
73674;BME280;61975;48.660;10.164;2022-08-19T00:16:14;95130.03;;;19.09;82.30
73674;BME280;61975;48.660;10.164;2022-08-19T00:18:40;95138.47;;;19.09;82.03
73674;BME280;61975;48.660;10.164;2022-08-19T00:21:05;95143.66;;;19.11;82.18
73674;BME280;61975;48.660;10.164;2022-08-19T00:23:34;95137.72;;;19.09;82.18
73674;BME280;61975;48.660;10.164;2022-08-19T00:26:03;95127.72;;;19.08;82.74
73674;BME280;61975;48.660;10.164;2022-08-19T00:28:28;95114.84;;;19.07;82.94
73674;BME280;61975;48.660;10.164;2022-08-19T00:30:54;95103.16;;;19.08;83.05
73674;BME280;61975;48.660;10.164;2022-08-19T00:33:20;95103.28;;;19.05;83.01
73674;BME280;61975;48.660;10.164;2022-08-19T00:35:46;95105.28;;;19.04;83.29
73674;BME280;61975;48.660;10.164;2022-08-19T00:38:12;95101.69;;;19.04;83.29
73674;BME280;61975;48.660;10.164;2022-08-19T00:40:37;95114.19;;;19.03;83.49
73674;BME280;61975;48.660;10.164;2022-08-19T00:43:10;95119.94;;;18.99;83.45
73674;BME280;61975;48.660;10.164;2022-08-19T00:45:38;95113.16;;;18.97;83.24
73674;BME280;61975;48.660;10.164;2022-08-19T00:48:06;95111.94;;;18.98;83.44
73674;BME280;61975;48.660;10.164;2022-08-19T00:50:32;95122.41;;;18.97;83.01
73674;BME280;61975;48.660;10.164;2022-08-19T00:52:58;95123.75;;;18.93;83.10
73674;BME280;61975;48.660;10.164;2022-08-19T00:55:26;95127.00;;;18.91;83.23
73674;BME280;61975;48.660;10.164;2022-08-19T00:58:00;95124.63;;;18.90;83.26
73674;BME280;61975;48.660;10.164;2022-08-19T01:00:28;95128.69;;;18.89;83.40
73674;BME280;61975;48.660;10.164;2022-08-19T01:02:54;95126.91;;;18.95;82.59
73674;BME280;61975;48.660;10.164;2022-08-19T01:05:22;95127.13;;;18.88;83.14
73674;BME280;61975;48.660;10.164;2022-08-19T01:07:49;95134.91;;;18.84;83.39
73674;BME280;61975;48.660;10.164;2022-08-19T01:10:19;95117.56;;;18.85;82.65
73674;BME280;61975;48.660;10.164;2022-08-19T01:12:46;95120.94;;;18.80;83.47
73674;BME280;61975;48.660;10.164;2022-08-19T01:15:16;95127.00;;;18.79;83.62
73674;BME280;61975;48.660;10.164;2022-08-19T01:17:43;95123.88;;;18.77;83.57
73674;BME280;61975;48.660;10.164;2022-08-19T01:20:13;95133.88;;;18.78;83.32
73674;BME280;61975;48.660;10.164;2022-08-19T01:22:55;95143.56;;;18.77;83.78
73674;BME280;61975;48.660;10.164;2022-08-19T01:25:51;95143.75;;;18.70;83.88
73674;BME280;61975;48.660;10.164;2022-08-19T01:28:20;95134.97;;;18.68;84.26
73674;BME280;61975;48.660;10.164;2022-08-19T01:30:46;95122.94;;;18.67;83.86
73674;BME280;61975;48.660;10.164;2022-08-19T01:33:12;95134.53;;;18.69;84.15
73674;BME280;61975;48.660;10.164;2022-08-19T01:35:38;95140.59;;;18.68;84.35
73674;BME280;61975;48.660;10.164;2022-08-19T01:38:07;95141.03;;;18.66;84.64
73674;BME280;61975;48.660;10.164;2022-08-19T01:40:36;95139.25;;;18.60;85.25
73674;BME280;61975;48.660;10.164;2022-08-19T01:43:02;95138.81;;;18.61;85.63
73674;BME280;61975;48.660;10.164;2022-08-19T01:45:30;95137.66;;;18.59;86.44
73674;BME280;61975;48.660;10.164;2022-08-19T01:47:57;95132.91;;;18.56;86.90
73674;BME280;61975;48.660;10.164;2022-08-19T01:50:22;95128.09;;;18.56;87.06
73674;BME280;61975;48.660;10.164;2022-08-19T01:52:48;95139.69;;;18.58;87.14
73674;BME280;61975;48.660;10.164;2022-08-19T01:55:17;95129.34;;;18.55;87.80
73674;BME280;61975;48.660;10.164;2022-08-19T01:57:48;95134.50;;;18.57;87.52
73674;BME280;61975;48.660;10.164;2022-08-19T02:00:18;95141.81;;;18.54;87.86
73674;BME280;61975;48.660;10.164;2022-08-19T02:02:44;95133.13;;;18.49;88.91
73674;BME280;61975;48.660;10.164;2022-08-19T02:05:11;95125.63;;;18.46;88.71
73674;BME280;61975;48.660;10.164;2022-08-19T02:07:39;95142.91;;;18.44;89.06
73674;BME280;61975;48.660;10.164;2022-08-19T02:10:07;95139.75;;;18.42;89.21
73674;BME280;61975;48.660;10.164;2022-08-19T02:12:33;95144.56;;;18.42;89.52
73674;BME280;61975;48.660;10.164;2022-08-19T02:14:59;95141.00;;;18.41;89.47
73674;BME280;61975;48.660;10.164;2022-08-19T02:17:25;95148.31;;;18.39;89.19
73674;BME280;61975;48.660;10.164;2022-08-19T02:19:50;95154.69;;;18.39;88.99
73674;BME280;61975;48.660;10.164;2022-08-19T02:22:15;95155.81;;;18.42;88.70
73674;BME280;61975;48.660;10.164;2022-08-19T02:24:41;95158.75;;;18.38;88.98
73674;BME280;61975;48.660;10.164;2022-08-19T02:27:06;95156.38;;;18.37;89.56
73674;BME280;61975;48.660;10.164;2022-08-19T02:29:32;95152.00;;;18.36;90.18
73674;BME280;61975;48.660;10.164;2022-08-19T02:31:57;95150.38;;;18.35;90.23
73674;BME280;61975;48.660;10.164;2022-08-19T02:34:23;95143.56;;;18.36;90.66
73674;BME280;61975;48.660;10.164;2022-08-19T02:36:50;95144.50;;;18.29;90.60
73674;BME280;61975;48.660;10.164;2022-08-19T02:39:15;95144.97;;;18.28;90.78
73674;BME280;61975;48.660;10.164;2022-08-19T02:41:40;95147.44;;;18.26;90.97
73674;BME280;61975;48.660;10.164;2022-08-19T02:44:06;95143.06;;;18.25;91.21
73674;BME280;61975;48.660;10.164;2022-08-19T02:46:33;95141.91;;;18.22;91.66
73674;BME280;61975;48.660;10.164;2022-08-19T02:49:06;95132.72;;;18.22;92.16
73674;BME280;61975;48.660;10.164;2022-08-19T02:51:35;95125.84;;;18.23;92.61
73674;BME280;61975;48.660;10.164;2022-08-19T02:54:02;95125.84;;;18.23;92.64
73674;BME280;61975;48.660;10.164;2022-08-19T02:56:28;95134.72;;;18.21;92.85
73674;BME280;61975;48.660;10.164;2022-08-19T02:58:56;95139.09;;;18.22;92.27
73674;BME280;61975;48.660;10.164;2022-08-19T03:01:30;95139.91;;;18.23;92.46
73674;BME280;61975;48.660;10.164;2022-08-19T03:03:57;95136.28;;;18.22;92.58
73674;BME280;61975;48.660;10.164;2022-08-19T03:06:23;95138.84;;;18.17;92.21
73674;BME280;61975;48.660;10.164;2022-08-19T03:08:49;95138.84;;;18.17;92.60
73674;BME280;61975;48.660;10.164;2022-08-19T03:11:27;95124.72;;;18.20;92.52
73674;BME280;61975;48.660;10.164;2022-08-19T03:13:53;95116.63;;;18.22;92.06
73674;BME280;61975;48.660;10.164;2022-08-19T03:16:21;95118.50;;;18.13;92.18
73674;BME280;61975;48.660;10.164;2022-08-19T03:18:47;95123.44;;;18.09;92.34
73674;BME280;61975;48.660;10.164;2022-08-19T03:21:17;95124.25;;;18.09;91.79
73674;BME280;61975;48.660;10.164;2022-08-19T03:23:43;95126.34;;;18.05;92.04
73674;BME280;61975;48.660;10.164;2022-08-19T03:26:09;95131.19;;;18.05;91.90
73674;BME280;61975;48.660;10.164;2022-08-19T03:28:34;95134.00;;;18.05;92.18
73674;BME280;61975;48.660;10.164;2022-08-19T03:31:03;95134.88;;;18.02;92.13
73674;BME280;61975;48.660;10.164;2022-08-19T03:33:30;95138.47;;;18.02;92.35
73674;BME280;61975;48.660;10.164;2022-08-19T03:36:20;95128.13;;;17.99;91.96
73674;BME280;61975;48.660;10.164;2022-08-19T03:38:50;95131.81;;;17.96;91.73
73674;BME280;61975;48.660;10.164;2022-08-19T03:41:21;95131.38;;;17.98;92.11
73674;BME280;61975;48.660;10.164;2022-08-19T03:43:48;95134.97;;;17.98;92.34
73674;BME280;61975;48.660;10.164;2022-08-19T03:46:19;95150.16;;;18.01;91.98
73674;BME280;61975;48.660;10.164;2022-08-19T03:48:50;95141.72;;;18.01;91.76
73674;BME280;61975;48.660;10.164;2022-08-19T03:51:28;95131.03;;;17.96;92.03
73674;BME280;61975;48.660;10.164;2022-08-19T03:53:55;95139.13;;;17.94;91.98
73674;BME280;61975;48.660;10.164;2022-08-19T03:56:21;95133.94;;;17.92;92.28
73674;BME280;61975;48.660;10.164;2022-08-19T03:58:47;95130.34;;;17.92;92.04
73674;BME280;61975;48.660;10.164;2022-08-19T04:01:16;95125.16;;;17.90;92.26
73674;BME280;61975;48.660;10.164;2022-08-19T04:03:43;95128.75;;;17.91;92.47
73674;BME280;61975;48.660;10.164;2022-08-19T04:06:21;95131.66;;;17.87;92.20
73674;BME280;61975;48.660;10.164;2022-08-19T04:08:49;95129.72;;;17.84;92.38
73674;BME280;61975;48.660;10.164;2022-08-19T04:11:30;95132.22;;;17.82;92.93
73674;BME280;61975;48.660;10.164;2022-08-19T04:13:57;95132.66;;;17.81;93.05
73674;BME280;61975;48.660;10.164;2022-08-19T04:16:24;95127.38;;;17.83;93.36
73674;BME280;61975;48.660;10.164;2022-08-19T04:18:50;95126.22;;;17.80;93.40
73674;BME280;61975;48.660;10.164;2022-08-19T04:21:21;95123.78;;;17.82;93.31
73674;BME280;61975;48.660;10.164;2022-08-19T04:23:48;95124.56;;;17.83;93.15
73674;BME280;61975;48.660;10.164;2022-08-19T04:26:15;95122.19;;;17.81;93.14
73674;BME280;61975;48.660;10.164;2022-08-19T04:28:42;95120.19;;;17.82;92.85
73674;BME280;61975;48.660;10.164;2022-08-19T04:31:13;95121.41;;;17.81;92.40
73674;BME280;61975;48.660;10.164;2022-08-19T04:33:39;95124.66;;;17.79;92.54
73674;BME280;61975;48.660;10.164;2022-08-19T04:36:05;95117.47;;;17.78;93.22
73674;BME280;61975;48.660;10.164;2022-08-19T04:38:30;95130.72;;;17.78;93.16
73674;BME280;61975;48.660;10.164;2022-08-19T04:40:56;95130.72;;;17.78;93.32
73674;BME280;61975;48.660;10.164;2022-08-19T04:43:39;95141.59;;;17.76;93.23
73674;BME280;61975;48.660;10.164;2022-08-19T04:46:11;95133.53;;;17.78;93.07
73674;BME280;61975;48.660;10.164;2022-08-19T04:48:37;95142.81;;;17.75;92.92
73674;BME280;61975;48.660;10.164;2022-08-19T04:51:07;95142.38;;;17.76;92.77
73674;BME280;61975;48.660;10.164;2022-08-19T04:53:35;95132.72;;;17.77;92.75
73674;BME280;61975;48.660;10.164;2022-08-19T04:56:09;95147.13;;;17.79;92.54
73674;BME280;61975;48.660;10.164;2022-08-19T04:58:35;95145.88;;;17.80;92.65
73674;BME280;61975;48.660;10.164;2022-08-19T05:01:01;95159.84;;;17.84;92.71
73674;BME280;61975;48.660;10.164;2022-08-19T05:03:27;95157.38;;;17.86;92.12
73674;BME280;61975;48.660;10.164;2022-08-19T05:06:04;95163.69;;;17.90;92.41
73674;BME280;61975;48.660;10.164;2022-08-19T05:08:30;95172.53;;;17.88;92.54
73674;BME280;61975;48.660;10.164;2022-08-19T05:10:56;95166.03;;;17.91;92.79
73674;BME280;61975;48.660;10.164;2022-08-19T05:13:22;95176.41;;;17.94;93.11
73674;BME280;61975;48.660;10.164;2022-08-19T05:15:56;95176.41;;;17.94;92.96
73674;BME280;61975;48.660;10.164;2022-08-19T05:18:22;95184.06;;;17.94;92.82
73674;BME280;61975;48.660;10.164;2022-08-19T05:21:09;95180.88;;;17.92;92.47
73674;BME280;61975;48.660;10.164;2022-08-19T05:23:53;95188.88;;;17.93;92.61
73674;BME280;61975;48.660;10.164;2022-08-19T05:26:19;95191.25;;;17.95;92.48
73674;BME280;61975;48.660;10.164;2022-08-19T05:28:44;95197.97;;;17.97;92.62
73674;BME280;61975;48.660;10.164;2022-08-19T05:31:09;95196.75;;;17.98;92.59
73674;BME280;61975;48.660;10.164;2022-08-19T05:33:35;95210.03;;;17.98;92.55
73674;BME280;61975;48.660;10.164;2022-08-19T05:36:02;95211.22;;;17.97;92.14
73674;BME280;61975;48.660;10.164;2022-08-19T05:38:28;95216.06;;;17.96;92.00
73674;BME280;61975;48.660;10.164;2022-08-19T05:40:55;95218.09;;;17.96;91.62
73674;BME280;61975;48.660;10.164;2022-08-19T05:43:20;95216.84;;;17.97;91.90
73674;BME280;61975;48.660;10.164;2022-08-19T05:45:46;95213.97;;;18.00;92.02
73674;BME280;61975;48.660;10.164;2022-08-19T05:48:12;95219.56;;;18.00;91.46
73674;BME280;61975;48.660;10.164;2022-08-19T05:50:39;95219.22;;;17.98;91.40
73674;BME280;61975;48.660;10.164;2022-08-19T05:53:05;95214.03;;;17.97;91.72
73674;BME280;61975;48.660;10.164;2022-08-19T05:55:32;95212.81;;;17.98;91.74
73674;BME280;61975;48.660;10.164;2022-08-19T05:57:57;95211.22;;;17.97;91.67
73674;BME280;61975;48.660;10.164;2022-08-19T06:00:23;95211.22;;;17.97;91.97
73674;BME280;61975;48.660;10.164;2022-08-19T06:02:49;95210.78;;;17.98;91.70
73674;BME280;61975;48.660;10.164;2022-08-19T06:05:16;95212.47;;;17.96;91.62
73674;BME280;61975;48.660;10.164;2022-08-19T06:07:41;95218.09;;;17.96;91.77
73674;BME280;61975;48.660;10.164;2022-08-19T06:10:09;95215.28;;;17.96;92.15
73674;BME280;61975;48.660;10.164;2022-08-19T06:12:35;95223.25;;;17.97;91.97
73674;BME280;61975;48.660;10.164;2022-08-19T06:15:04;95207.72;;;17.93;91.51
73674;BME280;61975;48.660;10.164;2022-08-19T06:17:31;95210.22;;;17.91;91.92
73674;BME280;61975;48.660;10.164;2022-08-19T06:19:56;95209.03;;;17.88;91.89
73674;BME280;61975;48.660;10.164;2022-08-19T06:22:22;95203.91;;;17.87;92.12
73674;BME280;61975;48.660;10.164;2022-08-19T06:24:47;95198.28;;;17.87;92.09
73674;BME280;61975;48.660;10.164;2022-08-19T06:27:18;95201.97;;;17.84;92.46
73674;BME280;61975;48.660;10.164;2022-08-19T06:29:43;95202.28;;;17.86;92.35
73674;BME280;61975;48.660;10.164;2022-08-19T06:32:08;95202.66;;;17.88;91.95
73674;BME280;61975;48.660;10.164;2022-08-19T06:34:34;95201.84;;;17.87;91.83
73674;BME280;61975;48.660;10.164;2022-08-19T06:37:00;95197.91;;;17.85;91.78
73674;BME280;61975;48.660;10.164;2022-08-19T06:39:31;95199.16;;;17.84;91.87
73674;BME280;61975;48.660;10.164;2022-08-19T06:42:00;95200.38;;;17.83;92.00
73674;BME280;61975;48.660;10.164;2022-08-19T06:44:27;95194.75;;;17.83;91.94
73674;BME280;61975;48.660;10.164;2022-08-19T06:46:54;95196.00;;;17.82;92.23
73674;BME280;61975;48.660;10.164;2022-08-19T06:49:20;95196.88;;;17.79;92.35
73674;BME280;61975;48.660;10.164;2022-08-19T06:51:47;95208.91;;;17.79;92.21
73674;BME280;61975;48.660;10.164;2022-08-19T06:54:14;95210.91;;;17.79;92.06
73674;BME280;61975;48.660;10.164;2022-08-19T06:56:41;95212.50;;;17.80;91.29
73674;BME280;61975;48.660;10.164;2022-08-19T06:59:10;95205.72;;;17.77;91.11
73674;BME280;61975;48.660;10.164;2022-08-19T07:01:40;95203.78;;;17.74;91.91
73674;BME280;61975;48.660;10.164;2022-08-19T07:04:07;95208.63;;;17.74;91.59
73674;BME280;61975;48.660;10.164;2022-08-19T07:06:34;95208.97;;;17.76;91.58
73674;BME280;61975;48.660;10.164;2022-08-19T07:08:59;95207.75;;;17.77;92.17
73674;BME280;61975;48.660;10.164;2022-08-19T07:11:25;95207.75;;;17.77;92.08
73674;BME280;61975;48.660;10.164;2022-08-19T07:13:51;95207.84;;;17.73;92.43
73674;BME280;61975;48.660;10.164;2022-08-19T07:16:18;95202.47;;;17.79;92.52
73674;BME280;61975;48.660;10.164;2022-08-19T07:18:49;95207.03;;;17.89;92.00
73674;BME280;61975;48.660;10.164;2022-08-19T07:21:23;95217.38;;;17.92;92.36
73674;BME280;61975;48.660;10.164;2022-08-19T07:23:50;95219.56;;;18.00;91.67
73674;BME280;61975;48.660;10.164;2022-08-19T07:26:25;95215.53;;;18.01;90.72
73674;BME280;61975;48.660;10.164;2022-08-19T07:28:52;95221.06;;;18.05;91.72
73674;BME280;61975;48.660;10.164;2022-08-19T07:31:22;95220.19;;;18.08;91.57
73674;BME280;61975;48.660;10.164;2022-08-19T07:33:50;95226.13;;;18.10;91.81
73674;BME280;61975;48.660;10.164;2022-08-19T07:36:20;95228.50;;;18.11;91.86
73674;BME280;61975;48.660;10.164;2022-08-19T07:38:47;95223.31;;;18.10;91.19
73674;BME280;61975;48.660;10.164;2022-08-19T07:41:20;95224.19;;;18.07;91.59
73674;BME280;61975;48.660;10.164;2022-08-19T07:43:47;95218.59;;;18.07;91.31
73674;BME280;61975;48.660;10.164;2022-08-19T07:46:13;95233.06;;;18.05;92.19
73674;BME280;61975;48.660;10.164;2022-08-19T07:48:42;95225.88;;;18.04;92.44
73674;BME280;61975;48.660;10.164;2022-08-19T07:51:10;95228.69;;;18.04;92.32
73674;BME280;61975;48.660;10.164;2022-08-19T07:53:37;95221.75;;;18.09;92.59
73674;BME280;61975;48.660;10.164;2022-08-19T07:56:04;95224.38;;;18.16;91.56
73674;BME280;61975;48.660;10.164;2022-08-19T07:58:35;95231.94;;;18.19;91.39
73674;BME280;61975;48.660;10.164;2022-08-19T08:01:03;95229.44;;;18.21;91.39
73674;BME280;61975;48.660;10.164;2022-08-19T08:03:29;95234.97;;;18.24;91.07
73674;BME280;61975;48.660;10.164;2022-08-19T08:06:14;95225.75;;;18.24;92.13
73674;BME280;61975;48.660;10.164;2022-08-19T08:08:58;95234.19;;;18.24;92.03
73674;BME280;61975;48.660;10.164;2022-08-19T08:11:39;95239.28;;;18.29;91.83
73674;BME280;61975;48.660;10.164;2022-08-19T08:14:06;95233.91;;;18.34;91.74
73674;BME280;61975;48.660;10.164;2022-08-19T08:16:38;95235.44;;;18.39;91.08
73674;BME280;61975;48.660;10.164;2022-08-19T08:19:04;95234.06;;;18.43;90.98
73674;BME280;61975;48.660;10.164;2022-08-19T08:21:31;95229.16;;;18.47;90.72
73674;BME280;61975;48.660;10.164;2022-08-19T08:23:57;95232.66;;;18.51;89.61
73674;BME280;61975;48.660;10.164;2022-08-19T08:26:23;95237.97;;;18.62;90.34
73674;BME280;61975;48.660;10.164;2022-08-19T08:28:50;95233.81;;;18.66;90.49
73674;BME280;61975;48.660;10.164;2022-08-19T08:31:16;95234.44;;;18.74;90.43
73674;BME280;61975;48.660;10.164;2022-08-19T08:33:44;95229.38;;;18.81;90.76
73674;BME280;61975;48.660;10.164;2022-08-19T08:36:11;95225.22;;;18.86;89.92
73674;BME280;61975;48.660;10.164;2022-08-19T08:38:40;95226.69;;;18.90;89.08
73674;BME280;61975;48.660;10.164;2022-08-19T08:41:17;95241.00;;;18.96;88.68
73674;BME280;61975;48.660;10.164;2022-08-19T08:43:47;95229.75;;;18.96;88.27
73674;BME280;61975;48.660;10.164;2022-08-19T08:46:24;95236.84;;;19.00;88.26
73674;BME280;61975;48.660;10.164;2022-08-19T08:51:35;95244.41;;;19.03;87.85
73674;BME280;61975;48.660;10.164;2022-08-19T08:54:08;95252.47;;;19.01;87.70
73674;BME280;61975;48.660;10.164;2022-08-19T08:56:37;95246.63;;;18.96;88.48
73674;BME280;61975;48.660;10.164;2022-08-19T08:59:07;95247.50;;;18.93;87.92
73674;BME280;61975;48.660;10.164;2022-08-19T09:01:35;95252.09;;;18.87;88.98
73674;BME280;61975;48.660;10.164;2022-08-19T09:04:04;95251.31;;;18.86;89.31
73674;BME280;61975;48.660;10.164;2022-08-19T09:06:38;95255.38;;;18.85;88.47
73674;BME280;61975;48.660;10.164;2022-08-19T09:17:09;95257.59;;;18.78;88.76
73674;BME280;61975;48.660;10.164;2022-08-19T09:19:57;95259.53;;;18.81;88.87
73674;BME280;61975;48.660;10.164;2022-08-19T09:22:23;95260.31;;;18.81;89.59
73674;BME280;61975;48.660;10.164;2022-08-19T09:24:50;95265.47;;;18.83;89.32
73674;BME280;61975;48.660;10.164;2022-08-19T09:27:18;95270.22;;;18.86;89.13
73674;BME280;61975;48.660;10.164;2022-08-19T09:29:44;95262.91;;;18.88;88.55
73674;BME280;61975;48.660;10.164;2022-08-19T09:32:09;95263.91;;;18.82;88.95
73674;BME280;61975;48.660;10.164;2022-08-19T09:34:35;95262.88;;;18.76;89.63
73674;BME280;61975;48.660;10.164;2022-08-19T09:37:00;95256.91;;;18.74;90.05
73674;BME280;61975;48.660;10.164;2022-08-19T09:39:26;95251.63;;;18.76;90.29
73674;BME280;61975;48.660;10.164;2022-08-19T09:41:51;95248.47;;;18.74;89.99
73674;BME280;61975;48.660;10.164;2022-08-19T09:44:18;95255.31;;;18.73;90.61
73674;BME280;61975;48.660;10.164;2022-08-19T09:46:45;95253.72;;;18.59;91.18
73674;BME280;61975;48.660;10.164;2022-08-19T09:49:16;95255.41;;;18.57;91.04
73674;BME280;61975;48.660;10.164;2022-08-19T09:51:42;95246.81;;;18.48;91.39
73674;BME280;61975;48.660;10.164;2022-08-19T09:54:08;95251.84;;;18.40;92.65
73674;BME280;61975;48.660;10.164;2022-08-19T09:56:33;95254.34;;;18.35;92.73
73674;BME280;61975;48.660;10.164;2022-08-19T09:58:59;95253.16;;;18.36;92.34
73674;BME280;61975;48.660;10.164;2022-08-19T10:01:27;95258.16;;;18.28;92.43
73674;BME280;61975;48.660;10.164;2022-08-19T10:03:55;95255.44;;;18.25;92.50
73674;BME280;61975;48.660;10.164;2022-08-19T10:06:23;95263.53;;;18.23;92.65
73674;BME280;61975;48.660;10.164;2022-08-19T10:08:49;95268.78;;;18.21;92.48
73674;BME280;61975;48.660;10.164;2022-08-19T10:11:15;95262.84;;;18.19;93.49
73674;BME280;61975;48.660;10.164;2022-08-19T10:13:43;95266.50;;;18.16;93.07
73674;BME280;61975;48.660;10.164;2022-08-19T10:16:16;95265.28;;;18.17;93.20
73674;BME280;61975;48.660;10.164;2022-08-19T10:18:43;95272.94;;;18.16;93.63
73674;BME280;61975;48.660;10.164;2022-08-19T10:21:20;95277.41;;;18.14;93.46
73674;BME280;61975;48.660;10.164;2022-08-19T10:23:49;95277.06;;;18.12;93.80
73674;BME280;61975;48.660;10.164;2022-08-19T10:26:19;95281.81;;;18.15;93.43
73674;BME280;61975;48.660;10.164;2022-08-19T10:28:44;95289.19;;;18.09;93.62
73674;BME280;61975;48.660;10.164;2022-08-19T10:31:12;95286.44;;;18.05;94.13
73674;BME280;61975;48.660;10.164;2022-08-19T10:33:39;95286.81;;;18.07;94.59
73674;BME280;61975;48.660;10.164;2022-08-19T10:36:09;95288.03;;;18.06;94.64
73674;BME280;61975;48.660;10.164;2022-08-19T10:38:36;95287.50;;;18.11;93.82
73674;BME280;61975;48.660;10.164;2022-08-19T10:41:15;95286.38;;;18.09;93.64
73674;BME280;61975;48.660;10.164;2022-08-19T10:43:41;95291.63;;;18.07;93.78
73674;BME280;61975;48.660;10.164;2022-08-19T10:46:09;95290.75;;;18.10;93.49
73674;BME280;61975;48.660;10.164;2022-08-19T10:48:35;95296.28;;;18.13;93.20
73674;BME280;61975;48.660;10.164;2022-08-19T10:51:01;95297.06;;;18.14;93.20
73674;BME280;61975;48.660;10.164;2022-08-19T10:53:45;95295.50;;;18.13;93.06
73674;BME280;61975;48.660;10.164;2022-08-19T10:56:10;95285.75;;;18.17;92.93
73674;BME280;61975;48.660;10.164;2022-08-19T10:58:54;95289.69;;;18.20;92.66
73674;BME280;61975;48.660;10.164;2022-08-19T11:01:21;95284.88;;;18.20;92.66
73674;BME280;61975;48.660;10.164;2022-08-19T11:03:47;95283.19;;;18.23;92.81
73674;BME280;61975;48.660;10.164;2022-08-19T11:06:12;95277.94;;;18.25;92.56
73674;BME280;61975;48.660;10.164;2022-08-19T11:08:38;95278.94;;;18.31;92.65
73674;BME280;61975;48.660;10.164;2022-08-19T11:11:05;95273.09;;;18.41;91.49
73674;BME280;61975;48.660;10.164;2022-08-19T11:13:33;95272.97;;;18.45;91.89
73674;BME280;61975;48.660;10.164;2022-08-19T11:16:11;95264.72;;;18.54;90.97
73674;BME280;61975;48.660;10.164;2022-08-19T11:18:41;95274.97;;;18.60;91.58
73674;BME280;61975;48.660;10.164;2022-08-19T11:21:15;95274.97;;;18.60;91.56
73674;BME280;61975;48.660;10.164;2022-08-19T11:23:43;95277.69;;;18.64;91.16
73674;BME280;61975;48.660;10.164;2022-08-19T11:26:09;95274.06;;;18.63;90.80
73674;BME280;61975;48.660;10.164;2022-08-19T11:28:35;95275.19;;;18.66;90.63
73674;BME280;61975;48.660;10.164;2022-08-19T11:31:00;95276.44;;;18.65;91.02
73674;BME280;61975;48.660;10.164;2022-08-19T11:33:29;95276.44;;;18.65;91.14
73674;BME280;61975;48.660;10.164;2022-08-19T11:35:57;95280.81;;;18.66;90.57
73674;BME280;61975;48.660;10.164;2022-08-19T11:38:23;95278.38;;;18.68;91.02
73674;BME280;61975;48.660;10.164;2022-08-19T11:40:59;95278.81;;;18.66;91.26
73674;BME280;61975;48.660;10.164;2022-08-19T11:43:25;95282.63;;;18.60;91.83
73674;BME280;61975;48.660;10.164;2022-08-19T11:45:53;95280.59;;;18.60;91.80
73674;BME280;61975;48.660;10.164;2022-08-19T11:48:19;95291.06;;;18.60;91.76
73674;BME280;61975;48.660;10.164;2022-08-19T11:50:52;95284.56;;;18.63;91.73
73674;BME280;61975;48.660;10.164;2022-08-19T11:53:19;95293.00;;;18.63;92.11
73674;BME280;61975;48.660;10.164;2022-08-19T11:55:46;95299.28;;;18.67;91.53
73674;BME280;61975;48.660;10.164;2022-08-19T11:58:13;95288.06;;;18.67;91.49
73674;BME280;61975;48.660;10.164;2022-08-19T12:00:39;95284.78;;;18.68;91.44
73674;BME280;61975;48.660;10.164;2022-08-19T12:03:05;95291.75;;;18.64;91.63
73674;BME280;61975;48.660;10.164;2022-08-19T12:05:30;95295.44;;;18.61;91.54
73674;BME280;61975;48.660;10.164;2022-08-19T12:07:56;95297.31;;;18.51;92.01
73674;BME280;61975;48.660;10.164;2022-08-19T12:10:22;95299.88;;;18.46;92.37
73674;BME280;61975;48.660;10.164;2022-08-19T12:12:47;95293.09;;;18.43;92.73
73674;BME280;61975;48.660;10.164;2022-08-19T12:15:13;95293.09;;;18.43;93.23
73674;BME280;61975;48.660;10.164;2022-08-19T12:17:40;95285.09;;;18.42;93.22
73674;BME280;61975;48.660;10.164;2022-08-19T12:20:08;95286.25;;;18.44;93.17
73674;BME280;61975;48.660;10.164;2022-08-19T12:22:35;95295.88;;;18.59;92.04
73674;BME280;61975;48.660;10.164;2022-08-19T12:25:00;95280.78;;;18.53;92.30
73674;BME280;61975;48.660;10.164;2022-08-19T12:27:26;95287.66;;;18.52;92.76
73674;BME280;61975;48.660;10.164;2022-08-19T12:29:51;95282.72;;;18.56;92.95
73674;BME280;61975;48.660;10.164;2022-08-19T12:32:17;95284.84;;;18.52;93.02
73674;BME280;61975;48.660;10.164;2022-08-19T12:34:42;95287.19;;;18.54;93.17
73674;BME280;61975;48.660;10.164;2022-08-19T12:37:08;95294.19;;;18.62;91.71
73674;BME280;61975;48.660;10.164;2022-08-19T12:39:36;95293.88;;;18.60;92.18
73674;BME280;61975;48.660;10.164;2022-08-19T12:42:02;95288.78;;;18.55;92.44
73674;BME280;61975;48.660;10.164;2022-08-19T12:44:28;95297.56;;;18.57;92.74
73674;BME280;61975;48.660;10.164;2022-08-19T12:46:56;95295.09;;;18.59;92.59
73674;BME280;61975;48.660;10.164;2022-08-19T12:49:21;95300.38;;;18.57;92.58
73674;BME280;61975;48.660;10.164;2022-08-19T12:51:47;95302.06;;;18.54;92.94
73674;BME280;61975;48.660;10.164;2022-08-19T12:54:12;95300.00;;;18.55;93.29
73674;BME280;61975;48.660;10.164;2022-08-19T12:56:38;95301.69;;;18.52;93.84
73674;BME280;61975;48.660;10.164;2022-08-19T12:59:04;95309.00;;;18.50;94.35
73674;BME280;61975;48.660;10.164;2022-08-19T13:01:30;95314.63;;;18.50;93.66
73674;BME280;61975;48.660;10.164;2022-08-19T13:03:58;95309.97;;;18.43;94.36
73674;BME280;61975;48.660;10.164;2022-08-19T13:06:25;95314.00;;;18.42;94.94